createdAt,value
2022-11-20T00:00:01.942Z,98943.47
2022-11-20T00:01:20.551Z,98946.66
2022-11-20T00:02:22.097Z,98940.47
2022-11-20T00:03:23.947Z,98945.66
2022-11-20T00:04:25.442Z,98931.13
2022-11-20T00:05:26.958Z,98941.41
2022-11-20T00:06:29.222Z,98937.84
2022-11-20T00:07:30.753Z,98926.50
2022-11-20T00:08:32.615Z,98931.72
2022-11-20T00:09:34.247Z,98927.47
2022-11-20T00:10:39.364Z,98925.56
2022-11-20T00:11:40.927Z,98916.53
2022-11-20T00:12:42.418Z,98921.78
2022-11-20T00:13:45.612Z,98917.44
2022-11-20T00:14:47.089Z,98917.28
2022-11-20T00:15:48.634Z,98919.66
2022-11-20T00:16:50.175Z,98927.28
2022-11-20T00:17:51.708Z,98923.28
2022-11-20T00:18:54.171Z,98924.56
2022-11-20T00:19:55.700Z,98921.28
2022-11-20T00:21:09.048Z,98929.91
2022-11-20T00:22:10.588Z,98925.25
2022-11-20T00:23:12.131Z,98927.22
2022-11-20T00:24:13.833Z,98924.63
2022-11-20T00:25:15.525Z,98926.31
2022-11-20T00:26:18.744Z,98924.53
2022-11-20T00:27:20.223Z,98920.22
2022-11-20T00:28:21.792Z,98920.28
2022-11-20T00:29:23.563Z,98924.59
2022-11-20T00:30:25.183Z,98933.88
2022-11-20T00:31:27.341Z,98927.72
2022-11-20T00:32:28.892Z,98930.31
2022-11-20T00:33:30.513Z,98931.25
2022-11-20T00:34:32.070Z,98926.84
2022-11-20T00:35:33.601Z,98920.72
2022-11-20T00:36:35.376Z,98929.38
2022-11-20T00:37:36.906Z,98924.22
2022-11-20T00:38:38.516Z,98921.66
2022-11-20T00:39:39.992Z,98915.59
2022-11-20T00:40:41.531Z,98917.94
2022-11-20T00:41:43.075Z,98911.81
2022-11-20T00:42:44.616Z,98914.56
2022-11-20T00:43:46.142Z,98915.63
2022-11-20T00:44:47.705Z,98914.72
2022-11-20T00:45:49.252Z,98915.22
2022-11-20T00:46:50.788Z,98922.81
2022-11-20T00:47:52.317Z,98919.28
2022-11-20T00:48:53.961Z,98912.94
2022-11-20T00:49:55.505Z,98917.81
2022-11-20T00:50:57.369Z,98916.81
2022-11-20T00:51:58.865Z,98916.75
2022-11-20T00:53:00.424Z,98916.03
2022-11-20T00:54:01.983Z,98914.94
2022-11-20T00:55:03.642Z,98916.53
2022-11-20T00:56:07.645Z,98915.63
2022-11-20T00:57:09.188Z,98919.06
2022-11-20T00:58:14.305Z,98915.63
2022-11-20T00:59:16.059Z,98913.97
2022-11-20T01:00:17.721Z,98915.75
2022-11-20T01:01:25.225Z,98917.31
2022-11-20T01:02:27.019Z,98913.03
2022-11-20T01:03:28.990Z,98913.84
2022-11-20T01:04:30.738Z,98913.81
2022-11-20T01:05:35.743Z,98909.78
2022-11-20T01:06:38.733Z,98914.06
2022-11-20T01:07:40.308Z,98919.38
2022-11-20T01:08:42.156Z,98917.75
2022-11-20T01:09:43.672Z,98911.19
2022-11-20T01:10:45.143Z,98915.97
2022-11-20T01:11:46.739Z,98913.56
2022-11-20T01:12:48.228Z,98911.47
2022-11-20T01:13:51.512Z,98906.13
2022-11-20T01:14:53.025Z,98910.38
2022-11-20T01:15:54.493Z,98908.66
2022-11-20T01:16:56.008Z,98911.19
2022-11-20T01:17:57.541Z,98912.22
2022-11-20T01:19:01.448Z,98912.13
2022-11-20T01:20:03.094Z,98908.50
2022-11-20T01:21:07.255Z,98898.81
2022-11-20T01:22:08.740Z,98902.00
2022-11-20T01:23:10.262Z,98907.50
2022-11-20T01:24:14.698Z,98896.41
2022-11-20T01:25:16.216Z,98897.19
2022-11-20T01:26:20.884Z,98890.19
2022-11-20T01:27:22.395Z,98885.78
2022-11-20T01:28:23.916Z,98889.97
2022-11-20T01:29:25.922Z,98893.28
2022-11-20T01:30:27.427Z,98894.94
2022-11-20T01:31:32.233Z,98888.88
2022-11-20T01:32:33.745Z,98884.44
2022-11-20T01:33:35.270Z,98888.66
2022-11-20T01:34:36.778Z,98886.34
2022-11-20T01:35:38.785Z,98877.13
2022-11-20T01:36:41.641Z,98884.09
2022-11-20T01:37:43.183Z,98884.31
2022-11-20T01:38:45.100Z,98888.56
2022-11-20T01:39:47.506Z,98890.13
2022-11-20T01:40:56.149Z,98880.75
2022-11-20T01:41:57.742Z,98884.25
2022-11-20T01:43:14.617Z,98889.38
2022-11-20T01:44:18.564Z,98888.41
2022-11-20T01:45:48.458Z,98876.28
2022-11-20T01:47:05.055Z,98878.75
2022-11-20T01:48:06.905Z,98881.25
2022-11-20T01:49:19.609Z,98882.06
2022-11-20T01:50:29.101Z,98884.63
2022-11-20T01:51:32.731Z,98883.75
2022-11-20T01:52:52.478Z,98877.81
2022-11-20T01:53:56.876Z,98879.53
2022-11-20T01:55:04.559Z,98883.13
2022-11-20T01:56:11.199Z,98876.50
2022-11-20T01:57:13.527Z,98879.06
2022-11-20T01:58:15.101Z,98881.78
2022-11-20T01:59:19.125Z,98884.47
2022-11-20T02:00:21.796Z,98882.78
2022-11-20T02:01:23.395Z,98890.63
2022-11-20T02:02:25.129Z,98876.09
2022-11-20T02:03:27.083Z,98886.19
2022-11-20T02:04:28.631Z,98886.16
2022-11-20T02:06:02.530Z,98887.81
2022-11-20T02:07:05.609Z,98884.88
2022-11-20T02:08:07.796Z,98885.28
2022-11-20T02:09:09.344Z,98897.75
2022-11-20T02:10:10.909Z,98900.38
2022-11-20T02:11:12.428Z,98898.56
2022-11-20T02:12:14.095Z,98898.50
2022-11-20T02:13:16.504Z,98903.47
2022-11-20T02:14:18.206Z,98903.53
2022-11-20T02:15:19.752Z,98908.94
2022-11-20T02:16:27.197Z,98909.22
2022-11-20T02:17:28.827Z,98905.69
2022-11-20T02:18:31.031Z,98911.75
2022-11-20T02:19:32.829Z,98911.63
2022-11-20T02:20:34.498Z,98916.63
2022-11-20T02:22:08.532Z,98912.94
2022-11-20T02:23:15.245Z,98919.69
2022-11-20T02:24:19.140Z,98918.75
2022-11-20T02:25:21.045Z,98916.94
2022-11-20T02:26:24.787Z,98916.09
2022-11-20T02:27:27.306Z,98918.44
2022-11-20T02:28:29.104Z,98910.59
2022-11-20T02:29:38.237Z,98907.13
2022-11-20T02:30:39.778Z,98911.41
2022-11-20T02:31:43.530Z,98912.06
2022-11-20T02:32:45.156Z,98909.88
2022-11-20T02:33:46.716Z,98910.25
2022-11-20T02:34:48.620Z,98911.25
2022-11-20T02:35:50.251Z,98910.38
2022-11-20T02:36:53.823Z,98912.38
2022-11-20T02:37:57.429Z,98913.41
2022-11-20T02:38:58.917Z,98917.63
2022-11-20T02:40:00.605Z,98912.25
2022-11-20T02:41:02.107Z,98915.09
2022-11-20T02:42:03.808Z,98912.66
2022-11-20T02:43:05.653Z,98916.25
2022-11-20T02:44:07.244Z,98924.59
2022-11-20T02:45:09.459Z,98922.78
2022-11-20T02:46:10.976Z,98917.63
2022-11-20T02:47:12.511Z,98914.38
2022-11-20T02:48:14.032Z,98920.34
2022-11-20T02:49:15.528Z,98917.13
2022-11-20T02:50:17.222Z,98925.75
2022-11-20T02:51:18.911Z,98919.06
2022-11-20T02:52:20.467Z,98916.84
2022-11-20T02:53:22.005Z,98919.50
2022-11-20T02:54:23.965Z,98924.53
2022-11-20T02:55:25.441Z,98919.16
2022-11-20T02:56:27.048Z,98925.97
2022-11-20T02:57:28.533Z,98921.41
2022-11-20T02:58:30.032Z,98929.88
2022-11-20T02:59:31.483Z,98923.13
2022-11-20T03:00:33.025Z,98922.13
2022-11-20T03:01:34.697Z,98928.81
2022-11-20T03:02:36.348Z,98922.69
2022-11-20T03:03:37.849Z,98929.47
2022-11-20T03:04:39.392Z,98929.38
2022-11-20T03:05:40.936Z,98925.03
2022-11-20T03:06:42.478Z,98924.09
2022-11-20T03:07:44.820Z,98930.88
2022-11-20T03:08:46.384Z,98929.88
2022-11-20T03:09:47.864Z,98932.47
2022-11-20T03:10:49.372Z,98927.31
2022-11-20T03:11:50.917Z,98924.09
2022-11-20T03:12:56.145Z,98933.97
2022-11-20T03:13:57.721Z,98936.78
2022-11-20T03:14:59.229Z,98932.88
2022-11-20T03:16:16.416Z,98931.09
2022-11-20T03:17:17.914Z,98926.78
2022-11-20T03:18:19.424Z,98933.66
2022-11-20T03:19:21.329Z,98930.06
2022-11-20T03:20:23.533Z,98922.53
2022-11-20T03:21:25.076Z,98927.09
2022-11-20T03:22:26.616Z,98923.75
2022-11-20T03:23:31.232Z,98918.16
2022-11-20T03:24:32.775Z,98915.94
2022-11-20T03:25:34.323Z,98917.13
2022-11-20T03:26:36.206Z,98919.72
2022-11-20T03:27:37.811Z,98913.78
2022-11-20T03:28:39.456Z,98917.28
2022-11-20T03:29:40.998Z,98918.91
2022-11-20T03:30:42.473Z,98920.44
2022-11-20T03:31:44.013Z,98919.53
2022-11-20T03:32:45.531Z,98921.34
2022-11-20T03:33:47.319Z,98919.47
2022-11-20T03:34:48.812Z,98921.78
2022-11-20T03:35:50.352Z,98921.75
2022-11-20T03:36:51.832Z,98919.19
2022-11-20T03:37:53.341Z,98914.72
2022-11-20T03:38:56.210Z,98915.72
2022-11-20T03:39:57.756Z,98925.13
2022-11-20T03:41:01.756Z,98931.94
2022-11-20T03:42:03.441Z,98927.72
2022-11-20T03:43:04.955Z,98931.59
2022-11-20T03:44:08.853Z,98937.41
2022-11-20T03:45:10.598Z,98939.81
2022-11-20T03:46:12.145Z,98927.72
2022-11-20T03:47:13.659Z,98940.81
2022-11-20T03:48:15.153Z,98928.28
2022-11-20T03:49:16.652Z,98926.59
2022-11-20T03:50:18.318Z,98926.00
2022-11-20T03:51:23.980Z,98922.81
2022-11-20T03:52:25.524Z,98922.75
2022-11-20T03:53:27.013Z,98927.69
2022-11-20T03:54:28.485Z,98917.94
2022-11-20T03:55:30.006Z,98920.41
2022-11-20T03:56:34.195Z,98916.13
2022-11-20T03:57:35.670Z,98918.50
2022-11-20T03:58:38.837Z,98920.19
2022-11-20T03:59:40.317Z,98919.22
2022-11-20T04:00:41.817Z,98914.00
2022-11-20T04:01:48.328Z,98919.84
2022-11-20T04:02:50.985Z,98909.47
2022-11-20T04:03:54.019Z,98916.13
2022-11-20T04:04:55.484Z,98925.41
2022-11-20T04:06:02.779Z,98924.44
2022-11-20T04:07:05.193Z,98919.88
2022-11-20T04:08:06.748Z,98919.94
2022-11-20T04:09:08.220Z,98920.22
2022-11-20T04:10:09.833Z,98917.16
2022-11-20T04:11:26.127Z,98918.47
2022-11-20T04:12:27.584Z,98917.88
2022-11-20T04:13:29.105Z,98913.06
2022-11-20T04:14:30.643Z,98917.19
2022-11-20T04:15:35.695Z,98921.56
2022-11-20T04:16:39.799Z,98908.63
2022-11-20T04:17:41.340Z,98915.31
2022-11-20T04:18:43.192Z,98919.56
2022-11-20T04:19:44.650Z,98911.69
2022-11-20T04:20:46.145Z,98904.66
2022-11-20T04:21:47.723Z,98911.31
2022-11-20T04:22:49.262Z,98906.00
2022-11-20T04:23:52.414Z,98912.78
2022-11-20T04:24:53.960Z,98900.75
2022-11-20T04:25:55.730Z,98910.94
2022-11-20T04:26:57.188Z,98902.16
2022-11-20T04:27:58.691Z,98903.72
2022-11-20T04:29:00.639Z,98902.81
2022-11-20T04:30:02.216Z,98904.44
2022-11-20T04:31:09.506Z,98899.31
2022-11-20T04:32:11.031Z,98901.09
2022-11-20T04:33:12.578Z,98908.06
2022-11-20T04:34:14.123Z,98903.38
2022-11-20T04:35:15.732Z,98909.56
2022-11-20T04:36:23.029Z,98909.47
2022-11-20T04:37:24.549Z,98905.09
2022-11-20T04:38:25.991Z,98900.03
2022-11-20T04:39:27.570Z,98907.66
2022-11-20T04:40:29.422Z,98905.94
2022-11-20T04:41:33.358Z,98894.88
2022-11-20T04:42:34.868Z,98893.91
2022-11-20T04:43:36.365Z,98885.28
2022-11-20T04:44:37.889Z,98893.03
2022-11-20T04:45:39.389Z,98894.78
2022-11-20T04:46:43.090Z,98889.69
2022-11-20T04:47:44.626Z,98890.69
2022-11-20T04:48:46.332Z,98894.88
2022-11-20T04:49:48.108Z,98887.19
2022-11-20T04:50:49.932Z,98894.03
2022-11-20T04:51:54.419Z,98884.53
2022-11-20T04:52:55.927Z,98892.16
2022-11-20T04:53:57.473Z,98881.81
2022-11-20T04:54:59.068Z,98883.66
2022-11-20T04:56:06.041Z,98882.03
2022-11-20T04:57:12.920Z,98880.41
2022-11-20T04:58:16.646Z,98883.84
2022-11-20T04:59:18.149Z,98881.97
2022-11-20T05:00:19.886Z,98889.56
2022-11-20T05:01:24.253Z,98894.78
2022-11-20T05:02:25.889Z,98890.69
2022-11-20T05:03:27.383Z,98892.88
2022-11-20T05:04:28.870Z,98889.53
2022-11-20T05:05:30.413Z,98889.53
2022-11-20T05:06:32.727Z,98886.84
2022-11-20T05:07:34.278Z,98879.44
2022-11-20T05:08:35.966Z,98881.34
2022-11-20T05:09:37.454Z,98876.22
2022-11-20T05:10:38.948Z,98877.91
2022-11-20T05:11:40.427Z,98875.22
2022-11-20T05:12:42.341Z,98876.88
2022-11-20T05:13:44.175Z,98875.03
2022-11-20T05:14:45.951Z,98874.09
2022-11-20T05:15:47.481Z,98873.94
2022-11-20T05:16:49.129Z,98877.31
2022-11-20T05:17:52.152Z,98878.19
2022-11-20T05:18:54.875Z,98870.41
2022-11-20T05:19:56.418Z,98862.59
2022-11-20T05:20:59.398Z,98872.03
2022-11-20T05:22:00.945Z,98879.00
2022-11-20T05:23:03.412Z,98869.56
2022-11-20T05:24:05.157Z,98870.38
2022-11-20T05:25:06.964Z,98874.38
2022-11-20T05:26:13.667Z,98862.47
2022-11-20T05:27:15.414Z,98869.19
2022-11-20T05:28:16.901Z,98867.44
2022-11-20T05:29:18.815Z,98869.09
2022-11-20T05:30:20.554Z,98866.53
2022-11-20T05:31:27.812Z,98870.78
2022-11-20T05:32:29.887Z,98862.19
2022-11-20T05:33:31.356Z,98863.00
2022-11-20T05:34:33.012Z,98863.06
2022-11-20T05:35:34.510Z,98856.13
2022-11-20T05:36:36.159Z,98861.97
2022-11-20T05:37:37.711Z,98863.69
2022-11-20T05:38:40.065Z,98857.69
2022-11-20T05:39:41.607Z,98861.25
2022-11-20T05:40:43.068Z,98856.38
2022-11-20T05:41:44.589Z,98851.41
2022-11-20T05:42:46.133Z,98846.69
2022-11-20T05:43:49.521Z,98857.25
2022-11-20T05:44:51.004Z,98849.03
2022-11-20T05:45:54.349Z,98853.66
2022-11-20T05:46:55.824Z,98854.06
2022-11-20T05:48:01.057Z,98855.13
2022-11-20T05:49:02.598Z,98845.75
2022-11-20T05:50:04.406Z,98849.00
2022-11-20T05:51:08.099Z,98852.97
2022-11-20T05:52:09.642Z,98851.94
2022-11-20T05:53:11.132Z,98842.28
2022-11-20T05:54:12.709Z,98843.09
2022-11-20T05:55:14.368Z,98846.34
2022-11-20T05:56:18.887Z,98848.78
2022-11-20T05:57:20.431Z,98847.91
2022-11-20T05:58:21.943Z,98846.97
2022-11-20T05:59:23.722Z,98852.00
2022-11-20T06:00:25.355Z,98845.88
2022-11-20T06:01:27.129Z,98833.06
2022-11-20T06:02:28.731Z,98844.97
2022-11-20T06:03:30.234Z,98846.59
2022-11-20T06:04:31.784Z,98845.63
2022-11-20T06:05:34.613Z,98844.69
2022-11-20T06:06:36.156Z,98843.81
2022-11-20T06:07:37.901Z,98845.47
2022-11-20T06:08:39.450Z,98841.16
2022-11-20T06:09:40.983Z,98845.41
2022-11-20T06:10:42.517Z,98856.56
2022-11-20T06:11:44.075Z,98855.78
2022-11-20T06:12:45.585Z,98847.16
2022-11-20T06:13:47.672Z,98849.63
2022-11-20T06:14:49.155Z,98848.72
2022-11-20T06:15:51.682Z,98847.69
2022-11-20T06:16:53.245Z,98841.66
2022-11-20T06:17:55.783Z,98851.81
2022-11-20T06:18:57.333Z,98850.00
2022-11-20T06:19:58.872Z,98848.09
2022-11-20T06:21:05.729Z,98842.97
2022-11-20T06:22:07.292Z,98846.44
2022-11-20T06:23:08.869Z,98841.28
2022-11-20T06:24:11.395Z,98847.28
2022-11-20T06:25:12.936Z,98843.06
2022-11-20T06:26:20.444Z,98847.22
2022-11-20T06:27:21.961Z,98841.13
2022-11-20T06:28:23.427Z,98841.00
2022-11-20T06:29:26.812Z,98842.78
2022-11-20T06:30:31.607Z,98845.38
2022-11-20T06:31:33.151Z,98838.78
2022-11-20T06:32:34.698Z,98846.63
2022-11-20T06:33:36.239Z,98839.91
2022-11-20T06:34:37.761Z,98839.97
2022-11-20T06:35:39.257Z,98838.16
2022-11-20T06:36:40.762Z,98839.50
2022-11-20T06:37:43.154Z,98833.00
2022-11-20T06:38:45.284Z,98836.84
2022-11-20T06:39:46.886Z,98834.25
2022-11-20T06:40:48.514Z,98827.72
2022-11-20T06:41:52.222Z,98831.22
2022-11-20T06:42:55.960Z,98838.09
2022-11-20T06:43:57.557Z,98827.25
2022-11-20T06:44:59.072Z,98825.03
2022-11-20T06:46:00.723Z,98833.88
2022-11-20T06:47:02.234Z,98820.81
2022-11-20T06:48:04.626Z,98825.56
2022-11-20T06:49:06.168Z,98823.19
2022-11-20T06:50:07.921Z,98815.16
2022-11-20T06:51:09.810Z,98820.28
2022-11-20T06:52:11.379Z,98811.16
2022-11-20T06:53:12.922Z,98816.81
2022-11-20T06:54:14.397Z,98807.97
2022-11-20T06:55:15.749Z,98813.75
2022-11-20T06:56:17.274Z,98812.63
2022-11-20T06:57:18.650Z,98813.69
2022-11-20T06:58:20.226Z,98808.38
2022-11-20T06:59:21.910Z,98808.22
2022-11-20T07:00:23.658Z,98804.72
2022-11-20T07:01:25.247Z,98793.94
2022-11-20T07:02:26.808Z,98794.38
2022-11-20T07:03:28.391Z,98800.13
2022-11-20T07:04:29.951Z,98798.81
2022-11-20T07:05:31.572Z,98796.59
2022-11-20T07:06:33.084Z,98799.47
2022-11-20T07:07:34.690Z,98792.81
2022-11-20T07:08:36.786Z,98803.16
2022-11-20T07:09:38.325Z,98797.78
2022-11-20T07:10:39.874Z,98800.06
2022-11-20T07:11:41.336Z,98800.47
2022-11-20T07:12:42.782Z,98798.59
2022-11-20T07:13:44.173Z,98803.53
2022-11-20T07:14:45.729Z,98796.72
2022-11-20T07:15:47.224Z,98797.50
2022-11-20T07:16:48.712Z,98799.75
2022-11-20T07:17:50.192Z,98795.72
2022-11-20T07:18:51.676Z,98793.66
2022-11-20T07:19:53.021Z,98794.06
2022-11-20T07:20:54.477Z,98794.50
2022-11-20T07:21:55.958Z,98800.47
2022-11-20T07:22:58.008Z,98792.78
2022-11-20T07:23:59.444Z,98798.53
2022-11-20T07:25:00.937Z,98800.50
2022-11-20T07:26:09.957Z,98796.03
2022-11-20T07:27:11.421Z,98797.88
2022-11-20T07:28:12.831Z,98804.81
2022-11-20T07:29:14.340Z,98801.94
2022-11-20T07:30:17.334Z,98802.69
2022-11-20T07:31:19.783Z,98803.72
2022-11-20T07:32:21.552Z,98810.97
2022-11-20T07:33:23.013Z,98807.16
2022-11-20T07:34:24.869Z,98799.94
2022-11-20T07:35:26.523Z,98804.56
2022-11-20T07:36:27.985Z,98795.09
2022-11-20T07:37:29.476Z,98802.38
2022-11-20T07:38:31.156Z,98802.41
2022-11-20T07:39:32.634Z,98801.56
2022-11-20T07:40:34.165Z,98796.09
2022-11-20T07:41:35.528Z,98798.56
2022-11-20T07:42:36.981Z,98811.63
2022-11-20T07:43:41.259Z,98810.13
2022-11-20T07:44:43.157Z,98805.69
2022-11-20T07:45:44.532Z,98807.03
2022-11-20T07:46:45.996Z,98809.00
2022-11-20T07:47:47.613Z,98810.59
2022-11-20T07:48:49.088Z,98815.59
2022-11-20T07:49:50.470Z,98815.03
2022-11-20T07:50:56.105Z,98816.00
2022-11-20T07:52:03.104Z,98819.69
2022-11-20T07:53:06.443Z,98812.00
2022-11-20T07:54:07.912Z,98811.25
2022-11-20T07:55:10.222Z,98816.25
2022-11-20T07:56:11.680Z,98821.13
2022-11-20T07:57:13.254Z,98823.97
2022-11-20T07:58:14.839Z,98824.44
2022-11-20T07:59:16.815Z,98818.34
2022-11-20T08:00:18.450Z,98824.81
2022-11-20T08:01:20.049Z,98819.19
2022-11-20T08:02:21.590Z,98817.84
2022-11-20T08:03:25.074Z,98813.66
2022-11-20T08:04:27.442Z,98813.28
2022-11-20T08:05:31.618Z,98815.09
2022-11-20T08:06:33.443Z,98820.13
2022-11-20T08:07:43.693Z,98827.47
2022-11-20T08:08:45.262Z,98822.34
2022-11-20T08:09:46.597Z,98825.28
2022-11-20T08:10:48.091Z,98823.09
2022-11-20T08:11:49.592Z,98828.69
2022-11-20T08:12:52.432Z,98829.00
2022-11-20T08:13:53.993Z,98824.84
2022-11-20T08:14:55.460Z,98822.19
2022-11-20T08:15:56.839Z,98820.34
2022-11-20T08:16:58.337Z,98821.28
2022-11-20T08:18:28.917Z,98828.28
2022-11-20T08:19:22.350Z,98826.28
2022-11-20T08:20:24.235Z,98823.75
2022-11-20T08:21:25.728Z,98829.09
2022-11-20T08:22:27.649Z,98821.31
2022-11-20T08:23:29.142Z,98821.00
2022-11-20T08:24:30.606Z,98816.09
2022-11-20T08:25:33.038Z,98813.28
2022-11-20T08:26:36.350Z,98814.91
2022-11-20T08:27:39.003Z,98813.03
2022-11-20T08:28:40.523Z,98814.66
2022-11-20T08:29:42.011Z,98807.53
2022-11-20T08:30:43.497Z,98812.31
2022-11-20T08:31:45.079Z,98820.56
2022-11-20T08:32:46.577Z,98819.16
2022-11-20T08:33:48.045Z,98812.69
2022-11-20T08:34:49.524Z,98829.72
2022-11-20T08:35:51.018Z,98824.84
2022-11-20T08:36:52.509Z,98833.72
2022-11-20T08:37:54.034Z,98829.41
2022-11-20T08:38:56.477Z,98833.75
2022-11-20T08:39:57.961Z,98839.91
2022-11-20T08:41:04.597Z,98838.63
2022-11-20T08:42:09.210Z,98841.28
2022-11-20T08:43:10.671Z,98841.03
2022-11-20T08:44:12.019Z,98842.97
2022-11-20T08:45:13.568Z,98836.75
2022-11-20T08:46:15.451Z,98837.38
2022-11-20T08:47:16.909Z,98839.19
2022-11-20T08:48:18.253Z,98840.94
2022-11-20T08:49:20.106Z,98832.78
2022-11-20T08:50:21.875Z,98836.69
2022-11-20T08:51:23.357Z,98834.63
2022-11-20T08:52:24.857Z,98833.38
2022-11-20T08:53:27.568Z,98833.47
2022-11-20T08:54:29.278Z,98829.06
2022-11-20T08:55:30.612Z,98829.66
2022-11-20T08:56:32.431Z,98832.72
2022-11-20T08:57:37.637Z,98826.69
2022-11-20T08:59:09.801Z,98833.22
2022-11-20T09:00:06.405Z,98828.88
2022-11-20T09:01:08.597Z,98828.94
2022-11-20T09:02:10.273Z,98823.00
2022-11-20T09:03:11.865Z,98829.03
2022-11-20T09:04:13.350Z,98820.13
2022-11-20T09:05:14.931Z,98819.88
2022-11-20T09:06:17.059Z,98818.97
2022-11-20T09:07:18.595Z,98814.94
2022-11-20T09:08:20.139Z,98816.28
2022-11-20T09:09:21.969Z,98812.91
2022-11-20T09:10:24.848Z,98815.69
2022-11-20T09:11:26.741Z,98801.81
2022-11-20T09:12:28.208Z,98810.81
2022-11-20T09:13:30.294Z,98811.25
2022-11-20T09:14:31.662Z,98812.25
2022-11-20T09:15:33.434Z,98807.97
2022-11-20T09:16:34.947Z,98799.72
2022-11-20T09:17:36.436Z,98806.25
2022-11-20T09:18:38.196Z,98802.97
2022-11-20T09:19:40.136Z,98802.31
2022-11-20T09:20:41.670Z,98794.59
2022-11-20T09:21:43.200Z,98796.69
2022-11-20T09:22:44.676Z,98796.88
2022-11-20T09:23:46.170Z,98796.38
2022-11-20T09:24:47.658Z,98789.28
2022-11-20T09:25:49.171Z,98794.03
2022-11-20T09:26:50.646Z,98782.38
2022-11-20T09:28:00.977Z,98783.44
2022-11-20T09:29:02.481Z,98781.41
2022-11-20T09:30:04.882Z,98783.50
2022-11-20T09:31:14.899Z,98787.41
2022-11-20T09:32:16.373Z,98790.34
2022-11-20T09:33:18.113Z,98794.19
2022-11-20T09:34:19.577Z,98785.38
2022-11-20T09:35:20.925Z,98788.41
2022-11-20T09:36:22.410Z,98792.78
2022-11-20T09:37:24.301Z,98792.50
2022-11-20T09:38:25.873Z,98789.50
2022-11-20T09:39:27.349Z,98779.44
2022-11-20T09:40:29.760Z,98776.41
2022-11-20T09:42:03.608Z,98777.56
2022-11-20T09:43:22.988Z,98782.31
2022-11-20T09:44:55.287Z,98776.81
2022-11-20T09:46:30.929Z,98779.75
2022-11-20T09:47:48.149Z,98774.38
2022-11-20T09:49:04.535Z,98777.81
2022-11-20T09:50:27.756Z,98773.16
2022-11-20T09:51:54.410Z,98774.16
2022-11-20T09:53:25.017Z,98776.75
2022-11-20T09:54:37.029Z,98764.81
2022-11-20T09:55:39.454Z,98773.25
2022-11-20T09:56:45.546Z,98762.72
2022-11-20T09:57:51.611Z,98762.19
2022-11-20T09:58:58.520Z,98765.13
2022-11-20T10:00:06.298Z,98759.84
2022-11-20T10:01:18.014Z,98758.59
2022-11-20T10:02:25.598Z,98753.78
2022-11-20T10:04:04.330Z,98753.28
2022-11-20T10:05:24.253Z,98762.75
2022-11-20T10:06:32.014Z,98767.44
2022-11-20T10:07:33.598Z,98757.06
2022-11-20T10:08:48.406Z,98743.53
2022-11-20T10:09:59.377Z,98744.28
2022-11-20T10:11:17.533Z,98740.94
2022-11-20T10:12:36.998Z,98739.59
2022-11-20T10:13:54.762Z,98733.66
2022-11-20T10:15:33.511Z,98732.09
2022-11-20T10:16:51.938Z,98732.09
2022-11-20T10:18:10.026Z,98734.25
2022-11-20T10:19:41.372Z,98728.06
2022-11-20T10:21:04.345Z,98734.41
2022-11-20T10:22:12.668Z,98729.38
2022-11-20T10:23:58.528Z,98729.94
2022-11-20T10:25:34.920Z,98726.44
2022-11-20T10:27:04.960Z,98721.97
2022-11-20T10:28:21.360Z,98731.53
2022-11-20T10:29:44.926Z,98723.31
2022-11-20T10:30:51.018Z,98721.53
2022-11-20T10:32:00.957Z,98729.78
2022-11-20T10:33:14.015Z,98721.06
2022-11-20T10:34:53.200Z,98722.84
2022-11-20T10:36:33.403Z,98732.97
2022-11-20T10:37:37.805Z,98726.47
2022-11-20T10:38:44.068Z,98724.25
2022-11-20T10:39:51.812Z,98728.84
2022-11-20T10:41:00.134Z,98721.84
2022-11-20T10:42:01.983Z,98724.06
2022-11-20T10:43:27.852Z,98725.38
2022-11-20T10:44:30.701Z,98727.69
2022-11-20T10:45:46.507Z,98730.66
2022-11-20T10:46:48.014Z,98726.78
2022-11-20T10:47:49.758Z,98724.44
2022-11-20T10:48:52.148Z,98728.53
2022-11-20T10:49:56.558Z,98735.38
2022-11-20T10:51:36.084Z,98728.31
2022-11-20T10:53:02.314Z,98720.63
2022-11-20T10:54:06.917Z,98716.09
2022-11-20T10:55:17.434Z,98718.56
2022-11-20T10:56:26.086Z,98722.94
2022-11-20T10:57:57.946Z,98711.16
2022-11-20T10:59:12.784Z,98710.97
2022-11-20T11:00:15.237Z,98702.06
2022-11-20T11:01:19.375Z,98708.81
2022-11-20T11:02:22.149Z,98704.38
2022-11-20T11:03:28.264Z,98705.00
2022-11-20T11:04:29.697Z,98707.22
2022-11-20T11:05:37.453Z,98698.59
2022-11-20T11:06:47.943Z,98693.69
2022-11-20T11:07:56.297Z,98699.53
2022-11-20T11:09:02.045Z,98695.81
2022-11-20T11:10:25.620Z,98691.06
2022-11-20T11:11:34.207Z,98692.72
2022-11-20T11:12:35.686Z,98694.19
2022-11-20T11:13:37.171Z,98693.38
2022-11-20T11:14:50.151Z,98698.47
2022-11-20T11:15:52.308Z,98688.63
2022-11-20T11:16:56.339Z,98695.81
2022-11-20T11:17:57.861Z,98696.56
2022-11-20T11:19:06.925Z,98697.56
2022-11-20T11:20:11.198Z,98691.63
2022-11-20T11:21:12.725Z,98693.03
2022-11-20T11:22:19.065Z,98686.69
2022-11-20T11:23:32.235Z,98690.50
2022-11-20T11:24:42.365Z,98691.84
2022-11-20T11:25:58.094Z,98687.66
2022-11-20T11:27:02.165Z,98694.53
2022-11-20T11:28:23.718Z,98689.63
2022-11-20T11:29:25.982Z,98691.19
2022-11-20T11:30:29.185Z,98688.59
2022-11-20T11:31:35.986Z,98691.19
2022-11-20T11:32:37.485Z,98694.16
2022-11-20T11:33:39.389Z,98692.69
2022-11-20T11:34:40.965Z,98689.72
2022-11-20T11:35:51.365Z,98687.00
2022-11-20T11:36:58.056Z,98684.97
2022-11-20T11:38:13.453Z,98681.19
2022-11-20T11:39:21.199Z,98677.09
2022-11-20T11:40:24.606Z,98675.97
2022-11-20T11:41:31.513Z,98674.16
2022-11-20T11:42:33.122Z,98664.97
2022-11-20T11:43:37.914Z,98668.94
2022-11-20T11:44:46.075Z,98672.91
2022-11-20T11:45:54.918Z,98675.59
2022-11-20T11:46:57.785Z,98675.69
2022-11-20T11:48:04.592Z,98674.47
2022-11-20T11:49:06.023Z,98675.50
2022-11-20T11:50:10.381Z,98676.44
2022-11-20T11:51:11.852Z,98675.66
2022-11-20T11:52:18.640Z,98677.88
2022-11-20T11:53:22.681Z,98678.16
2022-11-20T11:54:28.386Z,98677.63
2022-11-20T11:55:38.679Z,98671.03
2022-11-20T11:56:40.500Z,98675.03
2022-11-20T11:57:59.300Z,98671.63
2022-11-20T11:59:09.649Z,98668.44
2022-11-20T12:00:13.914Z,98665.13
2022-11-20T12:01:33.542Z,98664.09
2022-11-20T12:02:46.803Z,98669.09
2022-11-20T12:04:29.430Z,98663.09
2022-11-20T12:05:44.833Z,98663.72
2022-11-20T12:06:52.622Z,98667.16
2022-11-20T12:08:01.736Z,98668.81
2022-11-20T12:09:09.041Z,98665.41
2022-11-20T12:10:30.291Z,98667.06
2022-11-20T12:11:43.494Z,98672.28
2022-11-20T12:12:50.944Z,98670.28
2022-11-20T12:13:59.320Z,98665.28
2022-11-20T12:15:00.889Z,98669.66
2022-11-20T12:16:04.190Z,98665.50
2022-11-20T12:17:06.052Z,98670.50
2022-11-20T12:18:18.457Z,98662.91
2022-11-20T12:19:20.044Z,98657.53
2022-11-20T12:20:26.241Z,98658.44
2022-11-20T12:21:38.980Z,98651.41
2022-11-20T12:22:57.243Z,98654.94
2022-11-20T12:24:10.846Z,98651.88
2022-11-20T12:25:22.756Z,98639.16
2022-11-20T12:26:35.748Z,98641.75
2022-11-20T12:27:52.159Z,98637.31
2022-11-20T12:29:02.578Z,98640.38
2022-11-20T12:30:09.986Z,98636.84
2022-11-20T12:31:48.657Z,98642.88
2022-11-20T12:32:59.147Z,98641.88
2022-11-20T12:34:43.818Z,98640.28
2022-11-20T12:36:08.888Z,98642.16
2022-11-20T12:37:31.574Z,98638.06
2022-11-20T12:39:23.270Z,98640.03
2022-11-20T12:40:58.126Z,98630.47